createdAt,value
2022-09-23T00:00:09.913Z,6.66
2022-09-23T00:02:09.971Z,6.78
2022-09-23T00:04:09.915Z,6.81
2022-09-23T00:06:09.952Z,6.8
2022-09-23T00:08:09.903Z,6.7
2022-09-23T00:10:09.903Z,6.7
2022-09-23T00:13:47.140Z,6.75
2022-09-23T00:15:47.107Z,6.69
2022-09-23T00:17:47.114Z,6.72
2022-09-23T00:19:47.100Z,6.64
2022-09-23T00:21:47.156Z,6.73
2022-09-23T00:23:47.137Z,6.66
2022-09-23T00:25:47.104Z,6.57
2022-09-23T00:29:04.548Z,6.53
2022-09-23T00:31:04.563Z,6.48
2022-09-23T00:33:04.470Z,6.49
2022-09-23T00:35:04.477Z,6.46
2022-09-23T00:37:04.461Z,6.46
2022-09-23T00:39:04.780Z,6.32
2022-09-23T00:41:04.463Z,6.17
2022-09-23T00:44:25.957Z,6.31
2022-09-23T00:46:25.950Z,6.34
2022-09-23T00:48:25.905Z,6.38
2022-09-23T00:50:25.955Z,6.34
2022-09-23T00:52:25.926Z,6.31
2022-09-23T00:54:25.938Z,6.23
2022-09-23T00:56:25.907Z,6.25
2022-09-23T00:58:38.642Z,6.33
2022-09-23T01:00:38.691Z,6.29
2022-09-23T01:02:38.677Z,6.21
2022-09-23T01:04:38.675Z,6.08
2022-09-23T01:06:38.649Z,6.09
2022-09-23T01:08:38.651Z,6.07
2022-09-23T01:10:38.691Z,6.04
2022-09-23T01:12:38.630Z,5.95
2022-09-23T01:13:48.979Z,5.97
2022-09-23T01:15:49.015Z,5.8
2022-09-23T01:17:48.970Z,6.05
2022-09-23T01:19:48.968Z,6.03
2022-09-23T01:21:48.960Z,5.9
2022-09-23T01:23:48.996Z,5.94
2022-09-23T01:25:48.991Z,5.8
2022-09-23T01:27:48.962Z,5.87
2022-09-23T01:29:54.775Z,5.83
2022-09-23T01:31:54.835Z,5.75
2022-09-23T01:33:54.793Z,5.73
2022-09-23T01:35:54.831Z,5.77
2022-09-23T01:37:54.768Z,5.78
2022-09-23T01:39:54.780Z,5.79
2022-09-23T01:41:54.790Z,5.8
2022-09-23T01:44:35.086Z,5.84
2022-09-23T01:46:35.080Z,5.76
2022-09-23T01:48:35.246Z,5.81
2022-09-23T01:50:35.038Z,5.82
2022-09-23T01:52:35.048Z,5.72
2022-09-23T01:54:35.031Z,5.66
2022-09-23T01:56:35.014Z,5.67
2022-09-23T01:59:19.566Z,5.62
2022-09-23T02:01:19.637Z,5.7
2022-09-23T02:03:19.600Z,5.62
2022-09-23T02:05:19.630Z,5.55
2022-09-23T02:07:19.556Z,5.44
2022-09-23T02:09:19.561Z,5.33
2022-09-23T02:11:19.597Z,5.33
2022-09-23T02:13:19.551Z,5.38
2022-09-23T02:14:42.618Z,5.41
2022-09-23T02:16:42.697Z,5.38
2022-09-23T02:18:42.587Z,5.36
2022-09-23T02:20:42.659Z,5.29
2022-09-23T02:22:42.589Z,5.35
2022-09-23T02:24:42.591Z,5.4
2022-09-23T02:26:42.615Z,5.34
2022-09-23T02:29:41.383Z,5.37
2022-09-23T02:31:41.467Z,5.37
2022-09-23T02:33:41.393Z,5.38
2022-09-23T02:35:41.394Z,5.31
2022-09-23T02:37:41.414Z,5.26
2022-09-23T02:39:41.380Z,5.1
2022-09-23T02:41:41.418Z,5.15
2022-09-23T02:43:41.369Z,5.22
2022-09-23T02:44:48.543Z,5.18
2022-09-23T02:46:48.552Z,5.24
2022-09-23T02:48:48.566Z,5.31
2022-09-23T02:50:48.539Z,5.26
2022-09-23T02:52:48.567Z,5.28
2022-09-23T02:54:48.527Z,5.18
2022-09-23T02:56:48.569Z,5.22
2022-09-23T02:58:48.520Z,5.16
2022-09-23T03:00:21.177Z,5.06
2022-09-23T03:02:21.226Z,5.05
2022-09-23T03:04:21.170Z,5.06
2022-09-23T03:06:21.165Z,5.09
2022-09-23T03:08:21.260Z,5.08
2022-09-23T03:10:21.159Z,4.88
2022-09-23T03:12:21.209Z,4.86
2022-09-23T03:15:19.339Z,4.83
2022-09-23T03:17:19.448Z,4.78
2022-09-23T03:19:19.360Z,4.82
2022-09-23T03:21:19.328Z,4.87
2022-09-23T03:23:19.365Z,4.95
2022-09-23T03:25:19.346Z,5
2022-09-23T03:27:19.375Z,4.99
2022-09-23T03:30:52.572Z,4.87
2022-09-23T03:32:52.602Z,4.79
2022-09-23T03:34:52.419Z,4.7
2022-09-23T03:36:52.589Z,4.63
2022-09-23T03:38:52.508Z,4.7
2022-09-23T03:40:52.631Z,4.68
2022-09-23T03:42:52.496Z,4.65
2022-09-23T03:45:43.975Z,4.76
2022-09-23T03:47:44.150Z,4.59
2022-09-23T03:49:43.942Z,4.67
2022-09-23T03:51:44.728Z,4.66
2022-09-23T03:53:43.966Z,4.76
2022-09-23T03:55:43.933Z,4.8
2022-09-23T03:57:44.202Z,4.76
2022-09-23T04:01:01.019Z,4.56
2022-09-23T04:03:01.041Z,4.63
2022-09-23T04:05:01.030Z,4.56
2022-09-23T04:07:00.981Z,4.55
2022-09-23T04:09:01.026Z,4.46
2022-09-23T04:11:00.990Z,4.48
2022-09-23T04:13:01.012Z,4.54
2022-09-23T04:16:12.191Z,4.46
2022-09-23T04:18:12.085Z,4.62
2022-09-23T04:20:12.150Z,4.53
2022-09-23T04:22:12.115Z,4.58
2022-09-23T04:24:12.066Z,4.45
2022-09-23T04:26:12.062Z,4.49
2022-09-23T04:28:12.116Z,4.56
2022-09-23T04:31:19.612Z,4.74
2022-09-23T04:33:19.635Z,4.8
2022-09-23T04:35:19.591Z,4.88
2022-09-23T04:37:19.625Z,4.85
2022-09-23T04:39:19.582Z,4.87
2022-09-23T04:41:19.578Z,4.97
2022-09-23T04:43:19.633Z,4.9
2022-09-23T04:46:46.278Z,4.69
2022-09-23T04:48:46.552Z,4.89
2022-09-23T04:50:46.220Z,4.85
2022-09-23T04:52:46.236Z,4.8
2022-09-23T04:54:46.245Z,4.86
2022-09-23T04:56:46.205Z,4.95
2022-09-23T04:58:46.222Z,4.95
2022-09-23T05:01:48.114Z,5.08
2022-09-23T05:03:48.030Z,5.15
2022-09-23T05:05:48.040Z,5.38
2022-09-23T05:07:48.033Z,5.63
2022-09-23T05:09:48.225Z,5.84
2022-09-23T05:11:48.048Z,6.2
2022-09-23T05:13:48.050Z,6.3
2022-09-23T05:16:43.193Z,5.6
2022-09-23T05:18:43.131Z,5.26
2022-09-23T05:20:43.083Z,5.27
2022-09-23T05:22:43.126Z,5.18
2022-09-23T05:24:43.177Z,5.05
2022-09-23T05:26:43.081Z,4.84
2022-09-23T05:28:43.087Z,5.05
2022-09-23T05:31:55.608Z,5.84
2022-09-23T05:33:55.517Z,5.99
2022-09-23T05:35:55.584Z,6.28
2022-09-23T05:37:55.569Z,6.82
2022-09-23T05:39:55.501Z,7.01
2022-09-23T05:41:55.517Z,6.61
2022-09-23T05:43:55.529Z,6.06
2022-09-23T05:47:05.064Z,6.21
2022-09-23T05:49:05.016Z,6.27
2022-09-23T05:51:04.974Z,6.3
2022-09-23T05:53:05.007Z,6.44
2022-09-23T05:55:04.979Z,6.26
2022-09-23T05:57:05.088Z,6.4
2022-09-23T05:59:05.047Z,6.74
2022-09-23T06:02:22.165Z,7.11
2022-09-23T06:04:22.127Z,6.9
2022-09-23T06:06:22.099Z,6.9
2022-09-23T06:08:22.109Z,6.93
2022-09-23T06:10:22.164Z,7.38
2022-09-23T06:12:22.095Z,8.06
2022-09-23T06:14:22.155Z,8.68
2022-09-23T06:17:13.267Z,7.91
2022-09-23T06:19:13.304Z,7.32
2022-09-23T06:21:13.257Z,7.75
2022-09-23T06:23:13.255Z,7.75
2022-09-23T06:25:13.246Z,7.87
2022-09-23T06:27:13.323Z,8
2022-09-23T06:29:13.266Z,7.72
2022-09-23T06:31:13.823Z,7.88
2022-09-23T06:32:21.367Z,7.92
2022-09-23T06:34:21.581Z,7.85
2022-09-23T06:36:37.427Z,7.85
2022-09-23T06:38:21.348Z,7.98
2022-09-23T06:40:21.322Z,7.93
2022-09-23T06:42:21.308Z,8.23
2022-09-23T06:44:21.285Z,8.32
2022-09-23T06:46:21.374Z,8.21
2022-09-23T06:47:33.544Z,8.13
2022-09-23T06:49:33.625Z,8.2
2022-09-23T06:51:33.547Z,8.61
2022-09-23T06:53:33.567Z,8.59
2022-09-23T06:55:33.569Z,8.68
2022-09-23T06:57:33.532Z,8.68
2022-09-23T06:59:33.591Z,8.95
2022-09-23T07:01:33.632Z,8.89
2022-09-23T07:02:42.408Z,9.1
2022-09-23T07:04:42.275Z,8.61
2022-09-23T07:06:42.249Z,8.6
2022-09-23T07:08:42.301Z,8.66
2022-09-23T07:10:42.260Z,9.15
2022-09-23T07:12:42.242Z,9.48
2022-09-23T07:14:42.341Z,9.88
2022-09-23T07:16:42.234Z,9.59
2022-09-23T07:18:17.366Z,9.79
2022-09-23T07:20:17.342Z,10.25
2022-09-23T07:22:17.314Z,10.54
2022-09-23T07:24:17.333Z,10.81
2022-09-23T07:26:17.304Z,10.71
2022-09-23T07:28:17.378Z,10.5
2022-09-23T07:30:24.179Z,10.82
2022-09-23T07:33:36.792Z,11.02
2022-09-23T07:35:36.741Z,10.95
2022-09-23T07:37:36.710Z,11.29
2022-09-23T07:39:36.703Z,11.36
2022-09-23T07:41:36.681Z,11.34
2022-09-23T07:43:36.684Z,11.29
2022-09-23T07:45:36.687Z,11.09
2022-09-23T07:48:24.981Z,11.84
2022-09-23T07:50:25.025Z,12.37
2022-09-23T07:52:25.002Z,12.54
2022-09-23T07:54:25.017Z,12.42
2022-09-23T07:56:24.973Z,12.25
2022-09-23T07:58:24.964Z,11.87
2022-09-23T08:00:25.012Z,12.17
2022-09-23T08:03:27.814Z,12.91
2022-09-23T08:05:27.796Z,13.32
2022-09-23T08:07:27.783Z,13.11
2022-09-23T08:09:27.807Z,13.36
2022-09-23T08:11:27.778Z,13.15
2022-09-23T08:13:27.767Z,13.21
2022-09-23T08:15:27.802Z,13.47
2022-09-23T08:17:30.567Z,13.74
2022-09-23T08:18:34.145Z,13.72
2022-09-23T08:20:34.085Z,13.98
2022-09-23T08:22:34.080Z,14.29
2022-09-23T08:24:34.133Z,14.32
2022-09-23T08:26:34.072Z,14.42
2022-09-23T08:28:34.205Z,14.51
2022-09-23T08:30:34.082Z,14.37
2022-09-23T08:32:34.092Z,14.12
2022-09-23T08:33:57.278Z,14.37
2022-09-23T08:35:57.265Z,14.89
2022-09-23T08:37:57.297Z,15.08
2022-09-23T08:39:57.303Z,15.33
2022-09-23T08:41:58.900Z,15.39
2022-09-23T08:43:57.306Z,15.71
2022-09-23T08:45:57.301Z,16
2022-09-23T08:49:44.367Z,16.04
2022-09-23T08:51:44.361Z,15.7
2022-09-23T08:53:44.410Z,16.17
2022-09-23T08:55:44.363Z,16.61
2022-09-23T08:57:45.999Z,16.91
2022-09-23T08:59:44.355Z,16.86
2022-09-23T09:01:44.371Z,16.87
2022-09-23T09:04:30.161Z,16.69
2022-09-23T09:06:30.096Z,16.61
2022-09-23T09:08:30.150Z,16.57
2022-09-23T09:10:30.107Z,16.25
2022-09-23T09:12:30.176Z,15.22
2022-09-23T09:14:30.189Z,14.14
2022-09-23T09:16:55.295Z,15.87
2022-09-23T09:19:28.749Z,14.87
2022-09-23T09:21:28.777Z,15.96
2022-09-23T09:23:28.939Z,16.24
2022-09-23T09:25:32.083Z,16.6
2022-09-23T09:27:28.767Z,16.52
2022-09-23T09:29:35.210Z,16.13
2022-09-23T09:31:29.011Z,16.15
2022-09-23T09:34:45.598Z,17.05
2022-09-23T09:36:45.535Z,16.96
2022-09-23T09:38:45.500Z,17.06
2022-09-23T09:40:45.606Z,16.81
2022-09-23T09:42:45.517Z,16.83
2022-09-23T09:44:45.666Z,16.84
2022-09-23T09:46:45.623Z,16.87
2022-09-23T09:50:00.809Z,16.65
2022-09-23T09:52:00.822Z,16.32
2022-09-23T09:54:00.815Z,15.48
2022-09-23T09:56:04.540Z,15.99
2022-09-23T09:58:00.748Z,16.97
2022-09-23T10:00:00.759Z,16.65
2022-09-23T10:02:00.785Z,15.98
2022-09-23T10:05:39.890Z,16.18
2022-09-23T10:07:39.864Z,16.31
2022-09-23T10:09:39.866Z,16.07
2022-09-23T10:11:39.944Z,16.3
2022-09-23T10:13:39.916Z,16.3
2022-09-23T10:15:43.848Z,16.34
2022-09-23T10:17:39.855Z,16.28
2022-09-23T10:19:53.845Z,16.33
2022-09-23T10:21:53.873Z,16.94
2022-09-23T10:23:53.889Z,17.52
2022-09-23T10:25:53.862Z,17.5
2022-09-23T10:27:53.841Z,17.81
2022-09-23T10:29:53.850Z,17.75
2022-09-23T10:31:53.891Z,17.67
2022-09-23T10:33:53.889Z,17.71
2022-09-23T10:35:45.462Z,18.24
2022-09-23T10:37:45.465Z,17.96
2022-09-23T10:39:45.465Z,17.04
2022-09-23T10:41:45.468Z,16.63
2022-09-23T10:43:45.472Z,16.59
2022-09-23T10:45:45.509Z,17.3
2022-09-23T10:47:45.501Z,17.63
2022-09-23T10:50:40.665Z,18.34
2022-09-23T10:52:40.646Z,18.72
2022-09-23T10:54:40.663Z,18.73
2022-09-23T10:56:40.664Z,18.16
2022-09-23T10:58:40.661Z,18.11
2022-09-23T11:00:40.658Z,18.21
2022-09-23T11:02:40.660Z,18
2022-09-23T11:05:43.111Z,18.27
2022-09-23T11:07:42.925Z,18.38
2022-09-23T11:09:42.946Z,18.48
2022-09-23T11:11:42.948Z,18.36
2022-09-23T11:13:42.957Z,18.48
2022-09-23T11:15:42.973Z,18.25
2022-09-23T11:17:42.924Z,18.45
2022-09-23T11:21:25.756Z,17.46
2022-09-23T11:23:25.688Z,17.79
2022-09-23T11:25:25.711Z,18
2022-09-23T11:27:25.716Z,17.48
2022-09-23T11:29:25.690Z,17.58
2022-09-23T11:31:25.708Z,17.63
2022-09-23T11:33:25.682Z,17.53
2022-09-23T11:36:14.452Z,17.01
2022-09-23T11:38:14.507Z,17.08
2022-09-23T11:40:14.579Z,17.29
2022-09-23T11:42:14.472Z,17.61
2022-09-23T11:44:14.428Z,17.51
2022-09-23T11:46:14.490Z,17.37
2022-09-23T11:48:14.472Z,17.4
2022-09-23T11:51:02.104Z,18.26
2022-09-23T11:53:02.164Z,18.61
2022-09-23T11:55:05.438Z,18.92
2022-09-23T11:57:02.084Z,18.2
2022-09-23T11:59:02.105Z,18.07
2022-09-23T12:01:02.075Z,17.8
2022-09-23T12:03:05.812Z,17.75
2022-09-23T12:06:32.040Z,17.14
2022-09-23T12:08:31.985Z,17.09
2022-09-23T12:10:31.997Z,17.44
2022-09-23T12:12:32.013Z,17.64
2022-09-23T12:14:32.070Z,17.99
2022-09-23T12:16:31.987Z,17.8
2022-09-23T12:18:31.983Z,17.65
2022-09-23T12:21:50.075Z,16.67
2022-09-23T12:23:40.270Z,16.54
2022-09-23T12:25:40.337Z,16.64
2022-09-23T12:27:40.348Z,16.97
2022-09-23T12:29:40.323Z,17.13
2022-09-23T12:31:41.220Z,17.07
2022-09-23T12:33:40.279Z,17.5
2022-09-23T12:37:09.593Z,17.8
2022-09-23T12:39:09.594Z,17.4
2022-09-23T12:41:09.648Z,17.2
2022-09-23T12:43:09.590Z,17.65
2022-09-23T12:45:09.566Z,17.39
2022-09-23T12:47:09.657Z,17.3
2022-09-23T12:49:09.589Z,17.07
2022-09-23T12:51:40.114Z,16.82
2022-09-23T12:53:40.084Z,16.81
2022-09-23T12:55:40.153Z,16.73
2022-09-23T12:57:40.119Z,17.08
2022-09-23T12:59:40.077Z,16.41
2022-09-23T13:01:40.252Z,16.51
2022-09-23T13:03:40.077Z,17.12
2022-09-23T13:05:40.113Z,17.23
2022-09-23T13:07:40.966Z,17.48
2022-09-23T13:09:40.927Z,17.55
2022-09-23T13:11:40.966Z,16.83
2022-09-23T13:13:40.992Z,16.96
2022-09-23T13:15:40.938Z,17.07
2022-09-23T13:17:40.925Z,17.09
2022-09-23T13:19:40.918Z,16.99
2022-09-23T13:22:21.427Z,17.15
2022-09-23T13:24:21.179Z,16.88
2022-09-23T13:26:21.180Z,16.56
2022-09-23T13:28:21.192Z,16.93
2022-09-23T13:30:25.197Z,16.88
2022-09-23T13:32:21.251Z,16.51
2022-09-23T13:34:21.201Z,16.9
2022-09-23T13:37:48.566Z,17.33
2022-09-23T13:39:48.595Z,17.28
2022-09-23T13:41:48.551Z,17.17
2022-09-23T13:43:48.542Z,17.03
2022-09-23T13:45:48.610Z,16.79
2022-09-23T13:47:48.590Z,16.61
2022-09-23T13:49:48.601Z,16.73
2022-09-23T13:53:02.328Z,17.12
2022-09-23T13:55:02.330Z,16.95
2022-09-23T13:57:02.324Z,16.95
2022-09-23T13:59:02.378Z,17.13
2022-09-23T14:01:02.443Z,17.21
2022-09-23T14:03:02.307Z,16.89
2022-09-23T14:05:02.427Z,17.13
2022-09-23T14:07:53.183Z,17.43
2022-09-23T14:09:53.227Z,17.55
2022-09-23T14:11:53.187Z,17.48
2022-09-23T14:13:53.180Z,17.62
2022-09-23T14:15:53.213Z,17.37
2022-09-23T14:17:53.181Z,17.14
2022-09-23T14:19:53.491Z,17.11
2022-09-23T14:23:04.860Z,17.18
2022-09-23T14:25:04.902Z,16.53
2022-09-23T14:27:04.902Z,16.4
2022-09-23T14:29:05.169Z,16.25
2022-09-23T14:31:04.848Z,16.46
2022-09-23T14:33:08.588Z,16.57
2022-09-23T14:35:04.861Z,16.59
2022-09-23T14:37:55.470Z,16.87
2022-09-23T14:39:57.777Z,16.91
2022-09-23T14:41:55.467Z,16.95
2022-09-23T14:43:55.479Z,16.91
2022-09-23T14:45:55.564Z,16.67
2022-09-23T14:47:55.458Z,16.41
2022-09-23T14:49:55.542Z,16.19
2022-09-23T14:51:55.482Z,16.27
2022-09-23T14:53:21.419Z,16.42
2022-09-23T14:55:21.452Z,16.26
2022-09-23T14:57:21.450Z,16.41
2022-09-23T14:59:21.499Z,16.08
2022-09-23T15:01:21.530Z,15.86
2022-09-23T15:03:21.491Z,15.98
2022-09-23T15:05:21.472Z,15.85
2022-09-23T15:08:40.816Z,15.87
2022-09-23T15:10:40.851Z,16.02
2022-09-23T15:12:40.819Z,15.82
2022-09-23T15:14:41.210Z,15.75
2022-09-23T15:16:40.940Z,15.51
2022-09-23T15:18:40.820Z,15.54
2022-09-23T15:20:40.897Z,15.38
2022-09-23T15:24:01.890Z,15.39
2022-09-23T15:26:01.780Z,15.49
2022-09-23T15:28:01.817Z,15.44
2022-09-23T15:30:01.828Z,15.27
2022-09-23T15:32:01.858Z,15.09
2022-09-23T15:34:01.802Z,15.11
2022-09-23T15:36:01.892Z,15.04
2022-09-23T15:38:45.104Z,14.9
2022-09-23T15:40:45.183Z,14.77
2022-09-23T15:42:45.083Z,14.52
2022-09-23T15:44:45.172Z,14.55
2022-09-23T15:46:45.077Z,14.49
2022-09-23T15:48:45.096Z,14.49
2022-09-23T15:50:45.102Z,14.55
2022-09-23T15:54:35.845Z,14.42
2022-09-23T15:56:35.763Z,14.36
2022-09-23T15:58:35.724Z,14.3
2022-09-23T16:00:35.750Z,14.16
2022-09-23T16:02:35.794Z,14.16
2022-09-23T16:04:35.709Z,14.13
2022-09-23T16:06:35.710Z,14.02
2022-09-23T16:08:54.886Z,13.81
2022-09-23T16:10:54.920Z,13.69
2022-09-23T16:12:54.859Z,13.63
2022-09-23T16:14:54.851Z,13.52
2022-09-23T16:16:54.969Z,13.43
2022-09-23T16:18:54.852Z,13.3
2022-09-23T16:20:54.874Z,13.2
2022-09-23T16:22:54.858Z,13.04
2022-09-23T16:24:10.625Z,12.98
2022-09-23T16:26:10.676Z,12.84
2022-09-23T16:28:10.665Z,12.82
2022-09-23T16:30:10.605Z,12.6
2022-09-23T16:32:10.596Z,12.34
2022-09-23T16:34:10.643Z,12.33
2022-09-23T16:36:10.598Z,12.35
2022-09-23T16:39:56.571Z,12.26
2022-09-23T16:41:56.575Z,12.23
2022-09-23T16:43:56.586Z,12.16
2022-09-23T16:45:56.686Z,12.05
2022-09-23T16:47:56.550Z,12.01
2022-09-23T16:49:56.578Z,11.86
2022-09-23T16:51:56.547Z,11.89
2022-09-23T16:55:13.501Z,11.8
2022-09-23T16:57:13.484Z,11.74
2022-09-23T16:59:13.434Z,11.76
2022-09-23T17:01:13.512Z,11.77
2022-09-23T17:03:13.447Z,11.61
2022-09-23T17:05:13.518Z,11.56
2022-09-23T17:07:13.445Z,11.52
2022-09-23T17:09:54.293Z,11.32
2022-09-23T17:11:54.357Z,11.39
2022-09-23T17:13:54.317Z,11.25
2022-09-23T17:15:54.353Z,11.19
2022-09-23T17:17:54.343Z,11.2
2022-09-23T17:19:54.303Z,11.2
2022-09-23T17:21:54.296Z,11.08
2022-09-23T17:24:50.913Z,10.89
2022-09-23T17:26:57.025Z,10.87
2022-09-23T17:28:50.943Z,10.83
2022-09-23T17:30:50.981Z,10.84
2022-09-23T17:32:50.946Z,10.9
2022-09-23T17:34:50.929Z,10.75
2022-09-23T17:36:50.890Z,10.73
2022-09-23T17:40:32.138Z,10.75
2022-09-23T17:42:32.113Z,10.73
2022-09-23T17:44:32.203Z,10.58
2022-09-23T17:46:32.084Z,10.42
2022-09-23T17:48:32.057Z,10.4
2022-09-23T17:50:32.100Z,10.4
2022-09-23T17:52:32.062Z,10.38
2022-09-23T17:55:13.055Z,10.35
2022-09-23T17:57:13.052Z,10.3
2022-09-23T17:59:13.052Z,10.1
2022-09-23T18:01:13.283Z,10.09
2022-09-23T18:03:13.163Z,10.07
2022-09-23T18:05:13.053Z,10.07
2022-09-23T18:07:13.045Z,10.11
2022-09-23T18:10:49.589Z,9.99
2022-09-23T18:12:49.637Z,9.96
2022-09-23T18:14:49.650Z,9.92
2022-09-23T18:16:49.547Z,9.89
2022-09-23T18:18:49.599Z,9.87
2022-09-23T18:20:49.580Z,9.81
2022-09-23T18:22:49.616Z,9.76
2022-09-23T18:25:39.030Z,9.75
2022-09-23T18:27:28.471Z,9.72
2022-09-23T18:29:28.405Z,9.62
2022-09-23T18:31:28.469Z,9.62
2022-09-23T18:33:28.455Z,9.57
2022-09-23T18:35:28.449Z,9.52
2022-09-23T18:37:28.662Z,9.43
2022-09-23T18:40:24.901Z,9.44
2022-09-23T18:42:24.897Z,9.42
2022-09-23T18:44:24.812Z,9.3
2022-09-23T18:46:24.946Z,9.24
2022-09-23T18:48:25.066Z,9.3
2022-09-23T18:50:24.878Z,9.27
2022-09-23T18:52:24.826Z,9.2
2022-09-23T18:54:24.937Z,9.11
2022-09-23T18:56:22.186Z,9.08
2022-09-23T18:58:22.159Z,9.09
2022-09-23T19:00:22.263Z,9.02
2022-09-23T19:02:22.182Z,9.09
2022-09-23T19:04:22.206Z,9.03
2022-09-23T19:06:22.168Z,9.02
2022-09-23T19:08:22.185Z,8.98
2022-09-23T19:11:05.275Z,8.95
2022-09-23T19:13:05.231Z,8.9
2022-09-23T19:15:05.230Z,8.86
2022-09-23T19:17:05.275Z,8.87
2022-09-23T19:19:05.190Z,8.87
2022-09-23T19:21:07.036Z,8.77
2022-09-23T19:23:05.270Z,8.84
2022-09-23T19:26:39.244Z,8.8
2022-09-23T19:28:40.537Z,8.77
2022-09-23T19:30:39.231Z,8.77
2022-09-23T19:32:39.242Z,8.79
2022-09-23T19:34:39.324Z,8.75
2022-09-23T19:36:39.334Z,8.64
2022-09-23T19:38:39.170Z,8.73
2022-09-23T19:41:58.614Z,8.67
2022-09-23T19:43:58.585Z,8.58
2022-09-23T19:45:58.551Z,8.59
2022-09-23T19:47:58.517Z,8.57
2022-09-23T19:49:58.596Z,8.52
2022-09-23T19:51:58.566Z,8.46
2022-09-23T19:53:58.664Z,8.46
2022-09-23T19:56:36.875Z,8.51
2022-09-23T19:58:36.927Z,8.51
2022-09-23T20:00:36.914Z,8.45
2022-09-23T20:02:36.893Z,8.36
2022-09-23T20:04:36.942Z,8.37
2022-09-23T20:06:36.856Z,8.39
2022-09-23T20:08:36.858Z,8.24
2022-09-23T20:11:48.345Z,8.26
2022-09-23T20:13:48.346Z,8.22
2022-09-23T20:15:48.397Z,8.2
2022-09-23T20:17:48.320Z,8.23
2022-09-23T20:19:48.308Z,8.22
2022-09-23T20:21:48.312Z,8.2
2022-09-23T20:23:48.299Z,8.13
2022-09-23T20:26:38.301Z,8.07
2022-09-23T20:28:38.283Z,8
2022-09-23T20:30:38.262Z,8.04
2022-09-23T20:32:40.730Z,8.06
2022-09-23T20:34:38.245Z,8.06
2022-09-23T20:36:38.257Z,8.07
2022-09-23T20:38:38.305Z,7.97
2022-09-23T20:40:38.302Z,7.89
2022-09-23T20:42:13.631Z,7.86
2022-09-23T20:44:13.599Z,7.7
2022-09-23T20:46:13.732Z,7.62
2022-09-23T20:48:13.581Z,7.63
2022-09-23T20:50:13.577Z,7.62
2022-09-23T20:52:13.589Z,7.67
2022-09-23T20:54:13.574Z,7.7
2022-09-23T20:57:47.917Z,7.67
2022-09-23T20:59:47.908Z,7.62
2022-09-23T21:01:48.062Z,7.63
2022-09-23T21:03:47.948Z,7.67
2022-09-23T21:05:47.891Z,7.58
2022-09-23T21:07:47.938Z,7.55
2022-09-23T21:09:48.016Z,7.52
2022-09-23T21:12:45.488Z,7.3
2022-09-23T21:14:45.434Z,7.39
2022-09-23T21:16:45.511Z,7.3
2022-09-23T21:18:45.607Z,7.37
2022-09-23T21:20:45.424Z,7.34
2022-09-23T21:22:45.417Z,7.24
2022-09-23T21:25:25.513Z,7.28
2022-09-23T21:28:09.789Z,7.06
2022-09-23T21:30:09.787Z,7.16
2022-09-23T21:32:09.859Z,7.16
2022-09-23T21:34:09.792Z,7.17
2022-09-23T21:36:09.811Z,7.12
2022-09-23T21:38:09.882Z,7.14
2022-09-23T21:40:09.801Z,7.11
2022-09-23T21:42:58.864Z,7.07
2022-09-23T21:44:58.841Z,6.96
2022-09-23T21:46:58.950Z,6.85
2022-09-23T21:48:58.798Z,6.88
2022-09-23T21:50:58.850Z,6.93
2022-09-23T21:52:58.849Z,6.99
2022-09-23T21:54:58.794Z,6.99
2022-09-23T21:58:15.495Z,6.89
2022-09-23T22:00:15.511Z,6.81
2022-09-23T22:02:15.497Z,6.81
2022-09-23T22:04:15.673Z,6.82
2022-09-23T22:06:15.569Z,6.62
2022-09-23T22:08:15.545Z,6.66
2022-09-23T22:10:15.470Z,6.69
2022-09-23T22:12:56.636Z,6.57
2022-09-23T22:14:56.580Z,6.56
2022-09-23T22:16:56.591Z,6.54
2022-09-23T22:18:56.574Z,6.37
2022-09-23T22:20:56.589Z,6.36
2022-09-23T22:22:56.611Z,6.48
2022-09-23T22:24:56.582Z,6.55
2022-09-23T22:26:56.621Z,6.53
2022-09-23T22:28:52.905Z,6.49
2022-09-23T22:30:52.967Z,6.45
2022-09-23T22:32:55.166Z,6.44
2022-09-23T22:34:53.076Z,6.44
2022-09-23T22:36:52.882Z,6.42
2022-09-23T22:38:55.917Z,6.39
2022-09-23T22:40:53.071Z,6.42
2022-09-23T22:43:56.280Z,6.35
2022-09-23T22:45:56.236Z,6.38
2022-09-23T22:47:56.273Z,6.35
2022-09-23T22:49:56.228Z,6.28
2022-09-23T22:51:56.241Z,6.37
2022-09-23T22:53:56.260Z,6.22
2022-09-23T22:55:56.236Z,6.19
2022-09-23T22:58:50.336Z,6.25
2022-09-23T23:00:50.340Z,6.1
2022-09-23T23:02:50.327Z,6
2022-09-23T23:04:50.316Z,6.03
2022-09-23T23:06:50.322Z,6.09
2022-09-23T23:08:50.316Z,6.1
2022-09-23T23:10:50.377Z,6.11
2022-09-23T23:13:58.591Z,5.96
2022-09-23T23:15:58.573Z,6.01
2022-09-23T23:17:58.578Z,6.06
2022-09-23T23:19:58.526Z,6.04
2022-09-23T23:21:58.512Z,5.98
2022-09-23T23:23:58.545Z,5.98
2022-09-23T23:25:58.555Z,5.98
2022-09-23T23:29:01.610Z,5.93
2022-09-23T23:31:01.633Z,5.83
2022-09-23T23:33:01.605Z,5.77
2022-09-23T23:35:01.610Z,5.7
2022-09-23T23:37:01.561Z,5.64
2022-09-23T23:39:01.558Z,5.75
2022-09-23T23:41:01.584Z,5.84
2022-09-23T23:44:29.402Z,5.71
2022-09-23T23:46:29.434Z,5.71
2022-09-23T23:48:29.437Z,5.65
2022-09-23T23:50:29.399Z,5.61
2022-09-23T23:52:29.390Z,5.71
2022-09-23T23:54:29.387Z,5.69
2022-09-23T23:56:29.403Z,5.67
2022-09-23T23:59:13.009Z,5.59
